Time,TemperatureF,DewpointF,PressureIn,WindDirection,WindDirectionDegrees,WindSpeedMPH,WindSpeedGustMPH,Humidity,HourlyPrecipIn,Conditions,Clouds,dailyrainin,SolarRadiationWatts/m^2,SoftwareType,DateUTC
2013-11-15 00:22:00,30.0,25.0,-100.00,NE,55,2.0,6.0,81,0.00,,,0.00,0.000000,,2013-11-15 09:22:00,
2013-11-15 00:33:00,30.0,25.0,-100.00,NE,55,2.0,6.0,81,0.00,,,0.00,0.000000,,2013-11-15 09:33:00,
2013-11-15 00:43:00,30.0,25.0,-100.00,NE,55,2.0,6.0,81,0.00,,,0.00,0.000000,,2013-11-15 09:43:00,
2013-11-15 00:53:00,30.0,25.0,-100.00,NE,55,2.0,6.0,81,0.00,,,0.00,0.000000,,2013-11-15 09:53:00,
2013-11-15 01:22:00,28.0,24.0,-100.00,NE,49,2.0,6.0,83,0.00,,,0.00,0.000000,,2013-11-15 10:22:00,
2013-11-15 01:33:00,28.0,24.0,-100.00,NE,49,2.0,6.0,83,0.00,,,0.00,0.000000,,2013-11-15 10:33:00,
2013-11-15 01:42:00,28.0,24.0,-100.00,NE,49,2.0,6.0,83,0.00,,,0.00,0.000000,,2013-11-15 10:42:00,
2013-11-15 01:52:00,28.0,24.0,-100.00,NE,49,2.0,6.0,83,0.00,,,0.00,0.000000,,2013-11-15 10:52:00,
2013-11-15 02:22:00,30.0,22.0,-100.00,NE,43,2.0,8.0,72,0.00,,,0.00,0.000000,,2013-11-15 11:22:00,
2013-11-15 02:33:00,30.0,22.0,-100.00,NE,43,2.0,8.0,72,0.00,,,0.00,0.000000,,2013-11-15 11:33:00,
2013-11-15 02:42:00,30.0,22.0,-100.00,NE,43,2.0,8.0,72,0.00,,,0.00,0.000000,,2013-11-15 11:42:00,
2013-11-15 02:52:00,30.0,22.0,-100.00,NE,43,2.0,8.0,72,0.00,,,0.00,0.000000,,2013-11-15 11:52:00,
2013-11-15 03:21:00,27.0,21.0,-100.00,NNE,12,0.0,6.0,79,0.00,,,0.00,0.000000,,2013-11-15 12:21:00,
2013-11-15 03:32:00,27.0,21.0,-100.00,NNE,12,0.0,6.0,79,0.00,,,0.00,0.000000,,2013-11-15 12:32:00,
2013-11-15 03:42:00,27.0,21.0,-100.00,NNE,12,0.0,6.0,79,0.00,,,0.00,0.000000,,2013-11-15 12:42:00,
2013-11-15 03:52:00,27.0,21.0,-100.00,NNE,12,0.0,6.0,79,0.00,,,0.00,0.000000,,2013-11-15 12:52:00,
2013-11-15 04:21:00,26.0,25.0,-100.00,NE,55,0.0,2.0,95,0.00,,,0.00,0.000000,,2013-11-15 13:21:00,
2013-11-15 04:32:00,26.0,25.0,-100.00,NE,55,0.0,2.0,95,0.00,,,0.00,0.000000,,2013-11-15 13:32:00,
2013-11-15 04:52:00,26.0,25.0,-100.00,NE,55,0.0,2.0,95,0.00,,,0.00,0.000000,,2013-11-15 13:52:00,
2013-11-15 05:21:00,24.0,23.0,-100.00,ENE,60,0.0,3.0,97,0.00,,,0.00,0.000000,,2013-11-15 14:21:00,
2013-11-15 05:32:00,24.0,23.0,-100.00,ENE,60,0.0,3.0,97,0.00,,,0.00,0.000000,,2013-11-15 14:32:00,
2013-11-15 06:21:00,24.0,23.0,-100.00,NE,34,0.0,2.0,97,0.00,,,0.00,0.000000,,2013-11-15 15:21:00,
2013-11-15 06:33:00,24.0,23.0,-100.00,NE,34,0.0,2.0,97,0.00,,,0.00,0.000000,,2013-11-15 15:33:00,
2013-11-15 06:43:00,24.0,23.0,-100.00,NE,34,0.0,2.0,97,0.00,,,0.00,0.000000,,2013-11-15 15:43:00,
2013-11-15 06:53:00,24.0,23.0,-100.00,NE,34,0.0,2.0,97,0.00,,,0.00,0.000000,,2013-11-15 15:53:00,
2013-11-15 07:23:00,23.0,23.0,-100.00,North,3,0.0,2.0,100,0.00,,,-99.99,0.000000,,2013-11-15 16:23:00,
2013-11-15 07:33:00,23.0,23.0,-100.00,North,3,0.0,2.0,100,0.00,,,-99.99,0.000000,,2013-11-15 16:33:00,
2013-11-15 08:22:00,23.0,23.0,-100.00,ENE,68,0.0,2.0,100,-99.99,,,0.00,0.000000,,2013-11-15 17:22:00,
2013-11-15 08:32:00,23.0,23.0,-100.00,ENE,68,0.0,2.0,100,-99.99,,,0.00,0.000000,,2013-11-15 17:32:00,
2013-11-15 08:42:00,23.0,23.0,-100.00,ENE,68,0.0,2.0,100,-99.99,,,0.00,0.000000,,2013-11-15 17:42:00,
2013-11-15 08:52:00,23.0,23.0,-100.00,ENE,68,0.0,2.0,100,-99.99,,,0.00,0.000000,,2013-11-15 17:52:00,
2013-11-15 09:22:00,23.0,23.0,-100.00,NE,50,0.0,2.0,100,0.00,,,0.00,1.000000,,2013-11-15 18:22:00,
2013-11-15 09:32:00,23.0,23.0,-100.00,NE,50,0.0,2.0,100,0.00,,,0.00,1.000000,,2013-11-15 18:32:00,
2013-11-15 09:42:00,23.0,23.0,-100.00,NE,50,0.0,2.0,100,0.00,,,0.00,1.000000,,2013-11-15 18:42:00,
2013-11-15 09:52:00,23.0,23.0,-100.00,NE,50,0.0,2.0,100,0.00,,,0.00,1.000000,,2013-11-15 18:52:00,
2013-11-15 10:21:00,24.0,24.0,-100.00,North,357,0.0,2.0,99,-99.99,,,0.00,2.000000,,2013-11-15 19:21:00,
2013-11-15 10:32:00,24.0,24.0,-100.00,North,357,0.0,2.0,99,-99.99,,,0.00,2.000000,,2013-11-15 19:32:00,
2013-11-15 10:42:00,24.0,24.0,-100.00,North,357,0.0,2.0,99,-99.99,,,0.00,2.000000,,2013-11-15 19:42:00,
2013-11-15 10:52:00,24.0,24.0,-100.00,North,357,0.0,2.0,99,-99.99,,,0.00,2.000000,,2013-11-15 19:52:00,
2013-11-15 11:22:00,26.0,26.0,-100.00,ENE,63,0.0,2.0,98,0.00,,,0.00,6.000000,,2013-11-15 20:22:00,
2013-11-15 11:32:00,26.0,26.0,-100.00,ENE,63,0.0,2.0,98,0.00,,,0.00,6.000000,,2013-11-15 20:32:00,
2013-11-15 11:42:00,26.0,26.0,-100.00,ENE,63,0.0,2.0,98,0.00,,,0.00,6.000000,,2013-11-15 20:42:00,
2013-11-15 11:52:00,26.0,26.0,-100.00,ENE,63,0.0,2.0,98,0.00,,,0.00,6.000000,,2013-11-15 20:52:00,
2013-11-15 12:21:00,29.0,28.0,-100.00,North,2,0.0,1.0,96,0.00,,,0.00,14.000000,,2013-11-15 21:21:00,
2013-11-15 12:34:00,29.0,28.0,-100.00,North,2,0.0,1.0,96,0.00,,,0.00,14.000000,,2013-11-15 21:34:00,
2013-11-15 12:43:00,29.0,28.0,-100.00,North,2,0.0,1.0,96,0.00,,,0.00,14.000000,,2013-11-15 21:43:00,
2013-11-15 12:54:00,29.0,28.0,-100.00,North,2,0.0,1.0,96,0.00,,,0.00,14.000000,,2013-11-15 21:54:00,
2013-11-15 13:23:00,30.0,28.0,-100.00,NNE,12,0.0,3.0,93,0.00,,,0.00,12.000000,,2013-11-15 22:23:00,
2013-11-15 13:33:00,30.0,28.0,-100.00,NNE,12,0.0,3.0,93,0.00,,,0.00,12.000000,,2013-11-15 22:33:00,
2013-11-15 13:43:00,30.0,28.0,-100.00,NNE,12,0.0,3.0,93,0.00,,,0.00,12.000000,,2013-11-15 22:43:00,
2013-11-15 13:53:00,30.0,28.0,-100.00,NNE,12,0.0,3.0,93,0.00,,,0.00,12.000000,,2013-11-15 22:53:00,
2013-11-15 14:22:00,32.0,28.0,-100.00,NNE,25,0.0,4.0,85,0.00,,,0.00,13.000000,,2013-11-15 23:22:00,
2013-11-15 14:33:00,32.0,28.0,-100.00,NNE,25,0.0,4.0,85,0.00,,,0.00,13.000000,,2013-11-15 23:33:00,
2013-11-15 14:43:00,32.0,28.0,-100.00,NNE,25,0.0,4.0,85,0.00,,,0.00,13.000000,,2013-11-15 23:43:00,
2013-11-15 14:52:00,32.0,28.0,-100.00,NNE,25,0.0,4.0,85,0.00,,,0.00,13.000000,,2013-11-15 23:52:00,
2013-11-15 15:22:00,33.0,26.0,-100.00,NW,306,1.0,6.0,75,0.00,,,0.00,15.000000,,2013-11-16 00:22:00,
2013-11-15 15:32:00,33.0,26.0,-100.00,NW,306,1.0,6.0,75,0.00,,,0.00,15.000000,,2013-11-16 00:32:00,
2013-11-15 15:42:00,33.0,26.0,-100.00,NW,306,1.0,6.0,75,0.00,,,0.00,15.000000,,2013-11-16 00:42:00,
2013-11-15 15:52:00,33.0,26.0,-100.00,NW,306,1.0,6.0,75,0.00,,,0.00,15.000000,,2013-11-16 00:52:00,
2013-11-15 16:21:00,31.0,25.0,-100.00,NE,47,0.0,6.0,78,0.00,,,0.00,9.000000,,2013-11-16 01:21:00,
2013-11-15 16:32:00,31.0,25.0,-100.00,NE,47,0.0,6.0,78,0.00,,,0.00,9.000000,,2013-11-16 01:32:00,
2013-11-15 16:42:00,31.0,25.0,-100.00,NE,47,0.0,6.0,78,0.00,,,0.00,9.000000,,2013-11-16 01:42:00,
2013-11-15 16:52:00,31.0,25.0,-100.00,NE,47,0.0,6.0,78,0.00,,,0.00,9.000000,,2013-11-16 01:52:00,
2013-11-15 17:22:00,28.0,26.0,-100.00,ESE,106,1.0,3.0,91,0.00,,,0.00,2.000000,,2013-11-16 02:22:00,
2013-11-15 17:32:00,28.0,26.0,-100.00,ESE,106,1.0,3.0,91,0.00,,,0.00,2.000000,,2013-11-16 02:32:00,
2013-11-15 17:42:00,28.0,26.0,-100.00,ESE,106,1.0,3.0,91,0.00,,,0.00,2.000000,,2013-11-16 02:42:00,
2013-11-15 17:52:00,28.0,26.0,-100.00,ESE,106,1.0,3.0,91,0.00,,,0.00,2.000000,,2013-11-16 02:52:00,
2013-11-15 18:22:00,26.0,24.0,-100.00,NE,54,0.0,3.0,92,0.00,,,0.00,0.000000,,2013-11-16 03:22:00,
2013-11-15 18:34:00,26.0,24.0,-100.00,NE,54,0.0,3.0,92,0.00,,,0.00,0.000000,,2013-11-16 03:34:00,
2013-11-15 18:44:00,26.0,24.0,-100.00,NE,54,0.0,3.0,92,0.00,,,0.00,0.000000,,2013-11-16 03:44:00,
2013-11-15 18:54:00,26.0,24.0,-100.00,NE,54,0.0,3.0,92,0.00,,,0.00,0.000000,,2013-11-16 03:54:00,
2013-11-15 19:23:00,24.0,23.0,-100.00,NNW,334,0.0,3.0,97,0.00,,,0.00,0.000000,,2013-11-16 04:23:00,
2013-11-15 19:34:00,24.0,23.0,-100.00,NNW,334,0.0,3.0,97,0.00,,,0.00,0.000000,,2013-11-16 04:34:00,
2013-11-15 19:43:00,24.0,23.0,-100.00,NNW,334,0.0,3.0,97,0.00,,,0.00,0.000000,,2013-11-16 04:43:00,
2013-11-15 19:53:00,24.0,23.0,-100.00,NNW,334,0.0,3.0,97,0.00,,,0.00,0.000000,,2013-11-16 04:53:00,
2013-11-15 20:23:00,24.0,23.0,-100.00,NE,41,0.0,3.0,95,0.00,,,0.00,0.000000,,2013-11-16 05:23:00,
2013-11-15 20:34:00,24.0,23.0,-100.00,NE,41,0.0,3.0,95,0.00,,,0.00,0.000000,,2013-11-16 05:34:00,
2013-11-15 20:43:00,24.0,23.0,-100.00,NE,41,0.0,3.0,95,0.00,,,0.00,0.000000,,2013-11-16 05:43:00,
2013-11-15 20:52:00,24.0,23.0,-100.00,NE,41,0.0,3.0,95,0.00,,,0.00,0.000000,,2013-11-16 05:52:00,
2013-11-15 21:22:00,24.0,22.0,-100.00,ENE,57,1.0,4.0,90,0.00,,,0.00,0.000000,,2013-11-16 06:22:00,
2013-11-15 21:32:00,24.0,22.0,-100.00,ENE,57,1.0,4.0,90,0.00,,,0.00,0.000000,,2013-11-16 06:32:00,
2013-11-15 21:42:00,24.0,22.0,-100.00,ENE,57,1.0,4.0,90,0.00,,,0.00,0.000000,,2013-11-16 06:42:00,
2013-11-15 21:52:00,24.0,22.0,-100.00,ENE,57,1.0,4.0,90,0.00,,,0.00,0.000000,,2013-11-16 06:52:00,
2013-11-15 22:22:00,25.0,23.0,-100.00,North,10,1.0,4.0,93,0.00,,,0.00,0.000000,,2013-11-16 07:22:00,
2013-11-15 22:33:00,25.0,23.0,-100.00,North,10,1.0,4.0,93,0.00,,,0.00,0.000000,,2013-11-16 07:33:00,
2013-11-15 22:42:00,25.0,23.0,-100.00,North,10,1.0,4.0,93,0.00,,,0.00,0.000000,,2013-11-16 07:42:00,
2013-11-15 22:52:00,25.0,23.0,-100.00,North,10,1.0,4.0,93,0.00,,,0.00,0.000000,,2013-11-16 07:52:00,
2013-11-15 23:22:00,31.0,16.0,-100.00,NNE,14,3.0,12.0,53,0.00,,,0.00,0.000000,,2013-11-16 08:22:00,
2013-11-15 23:32:00,31.0,16.0,-100.00,NNE,14,3.0,12.0,53,0.00,,,0.00,0.000000,,2013-11-16 08:32:00,
2013-11-15 23:41:00,31.0,16.0,-100.00,NNE,14,3.0,12.0,53,0.00,,,0.00,0.000000,,2013-11-16 08:41:00,
2013-11-15 23:52:00,31.0,16.0,-100.00,NNE,14,3.0,12.0,53,0.00,,,0.00,0.000000,,2013-11-16 08:52:00,